Terminal Aerodrome Forecast
Issued by NWS

Home | Current Version | Previous Version | Text Only | Print | Product List | Glossary On
Versions: 1 2 3 4 5 6 7 8 9 10 11 12 13 14
000
FTUS44 KLZK 231700
TAFLIT
TAF
KLIT 231729Z 2318/2418 25004KT P6SM FEW035 BKN060 BKN250
     FM232000 28009KT P6SM VCTS SCT050CB
      TEMPO 2320/2324 VRB20G30KT 4SM TSRA BKN020CB
     FM240300 30005KT P6SM SCT150 SCT250
     FM241200 03003KT P6SM SCT250=

USA.gov is the U.S. government's official web portal to all federal, state and local government web resources and services.